Latest Weather Observations for Cooma Airport

IDN60801

Issued at 1:36 am EST Tuesday 26 July 2016 (issued every 30 minutes, with the page automatically refreshed every 10 minutes)

About weather observations | Map of weather stations | Latest weather observations for NSW | Other Formats
Station Details ID: 070217 Name: COOMA AIRPORT AWS Lat: -36.29 Lon: 148.97 Height: 930.0 m
Data from the previous 72 hours. | See also: Recent months at Cooma Airport
Date/Time
EST
Temp
°C
App
Temp
°C
Dew
Point
°C
Rel
Hum
%
Delta-T
°C
Wind Press
QNH
hPa
Press
MSL
hPa
Rain since
9am
mm
Dir  Spd
km/h
Gust
km/h
Spd
kts
Gust
kts
26/01:30am 4.2 -6.8 0.7 78 1.4 NW 48 72 26 39 1005.3 1006.6 -
26/01:00am 4.4 -8.1 0.6 76 1.6 WNW 56 80 30 43 1004.3 1005.6 -
26/12:30am 5.1 -7.1 0.3 71 2.0 WNW 54 85 29 46 1003.7 1005.0 -
26/12:00am 4.7 -5.6 0.5 74 1.7 NW 44 74 24 40 1004.9 1006.3 -
 
Date/Time
EST
Temp
°C
App
Temp
°C
Dew
Point
°C
Rel
Hum
%
Delta-T
°C
Wind Press
QNH
hPa
Press
MSL
hPa
Rain since
9am
mm
Dir  Spd
km/h
Gust
km/h
Spd
kts
Gust
kts
25/11:30pm 4.7 -6.7 0.3 73 1.8 NW 50 78 27 42 1005.8 1007.2 -
25/11:24pm 4.9 -5.8 0.3 72 1.9 NW 46 78 25 42 1005.9 1007.3 -
25/11:00pm 4.3 -5.1 -0.1 73 1.8 NW 39 59 21 32 1006.0 1007.4 -
25/10:30pm 4.8 -3.3 -0.6 68 2.2 NW 32 65 17 35 1006.3 1007.6 -
25/10:00pm 4.8 -4.4 -1.2 65 2.4 NW 37 59 20 32 1006.6 1008.0 -
25/09:30pm 5.0 -4.6 -1.4 63 2.5 WNW 39 63 21 34 1006.6 1008.0 -
25/09:00pm 5.0 -4.2 -1.4 63 2.5 NW 37 61 20 33 1006.6 1008.0 0.0
25/08:36pm 4.7 -2.8 -1.5 64 2.4 WNW 28 50 15 27 1007.2 1008.6 -
25/08:30pm 4.2 -2.6 -1.6 66 2.2 NW 24 37 13 20 1007.0 1008.4 -
25/08:01pm 4.4 -3.2 -2.4 61 2.6 WNW 28 46 15 25 1007.6 1009.0 -
25/08:00pm 4.2 -3.4 -2.4 62 2.5 WNW 28 44 15 24 1007.7 1009.1 -
25/07:30pm 4.7 -3.5 -0.9 67 2.2 NW 32 52 17 28 1007.8 1009.2 -
25/07:23pm 5.1 -2.2 -0.3 68 2.2 WNW 28 52 15 28 1007.9 1009.3 -
25/07:00pm 5.5 0.2 -0.5 65 2.4 NNW 17 33 9 18 1007.7 1009.1 -
25/06:30pm 5.4 0.8 -0.8 64 2.5 SW 13 22 7 12 1007.7 1009.1 -
25/06:00pm 5.7 0.0 0.3 68 2.2 NNW 20 30 11 16 1007.9 1009.3 -
25/05:30pm 5.8 1.4 0.2 67 2.3 NNW 13 24 7 13 1008.0 1009.4 -
25/05:00pm 6.1 -0.1 0.0 65 2.5 NNW 22 35 12 19 1007.5 1008.8 -
25/04:30pm 6.2 0.4 0.1 65 2.5 NNW 20 28 11 15 1007.7 1009.1 -
25/04:00pm 6.6 0.5 0.1 63 2.7 NNW 22 35 12 19 1008.1 1009.5 -
25/03:30pm 6.7 1.0 -0.5 60 2.9 NNW 19 28 10 15 1008.8 1010.2 -
25/03:00pm 8.0 2.0 -1.2 52 3.7 WNW 20 37 11 20 1008.6 1010.0 -
25/02:30pm 8.0 2.0 -1.5 51 3.8 NW 20 33 11 18 1008.4 1009.9 -
25/02:00pm 8.4 2.4 -1.4 50 4.0 WNW 20 43 11 23 1008.3 1009.7 -
25/01:41pm 8.2 0.3 -1.3 51 3.9 NW 30 50 16 27 1007.1 1008.5 -
25/01:30pm 8.5 2.6 -0.5 53 3.7 NNW 20 35 11 19 1008.0 1009.4 0.0
25/01:00pm 8.2 1.6 -0.5 54 3.6 WNW 24 33 13 18 1008.3 1009.7 0.0
25/12:30pm 8.3 0.8 -1.5 50 4.0 WNW 28 43 15 23 1008.7 1010.1 0.0
25/12:00pm 8.2 2.2 -1.9 49 4.1 NW 20 32 11 17 1008.8 1010.2 0.0
25/11:38am 8.0 0.5 -1.2 52 3.7 W 28 46 15 25 1008.8 1010.2 0.0
25/11:30am 7.9 -0.2 -0.6 55 3.5 W 32 44 17 24 1008.9 1010.3 0.0
25/11:13am 7.4 -0.1 -1.3 54 3.5 WNW 28 46 15 25 1008.9 1010.3 0.0
25/11:00am 7.6 0.6 -0.8 55 3.4 WNW 26 37 14 20 1009.0 1010.4 0.0
25/10:30am 7.6 0.9 -0.8 55 3.4 W 24 41 13 22 1008.8 1010.2 0.0
25/10:05am 6.8 -1.5 -1.6 55 3.3 W 32 50 17 27 1008.9 1010.3 0.0
25/10:00am 6.8 -1.6 -1.1 57 3.2 W 33 50 18 27 1008.8 1010.2 0.0
25/09:54am 6.6 -0.9 -1.5 56 3.2 W 28 46 15 25 1008.7 1010.1 0.0
25/09:30am 5.9 -2.0 -1.3 60 2.9 W 30 44 16 24 1008.6 1010.0 0.0
25/09:00am 5.3 -0.4 -0.5 66 2.3 W 19 28 10 15 1008.2 1009.6 0.0
25/08:30am 3.9 -0.3 -0.7 72 1.8 NW 11 30 6 16 1008.2 1009.6 0.0
25/08:00am 0.6 -2.9 -1.0 89 0.6 E 7 11 4 6 1007.9 1009.3 0.0
25/07:30am -1.0 -4.7 -2.6 89 0.5 N 7 9 4 5 1007.6 1009.0 0.0
25/07:00am -1.4 -5.4 -2.4 93 0.3 NNW 9 13 5 7 1007.1 1008.5 0.0
25/06:30am -1.2 -4.6 -1.9 95 0.2 ENE 6 11 3 6 1007.0 1008.4 0.0
25/06:00am -0.3 -3.3 -1.9 89 0.6 ENE 4 9 2 5 1006.6 1008.0 0.0
25/05:30am 1.3 -2.9 -0.8 86 0.8 WNW 11 19 6 10 1006.5 1007.8 0.0
25/05:00am 1.0 -3.3 -1.4 84 0.9 NNW 11 20 6 11 1005.7 1007.1 0.0
25/04:30am 0.7 -3.2 -1.8 83 1.0 N 9 15 5 8 1005.7 1007.1 0.0
25/04:00am 2.0 -1.8 -1.1 80 1.2 WNW 9 20 5 11 1005.3 1006.6 0.0
25/03:30am 1.6 -2.3 -1.8 78 1.3 W 9 17 5 9 1005.4 1006.7 0.0
25/03:00am 2.0 -4.0 -1.6 77 1.4 W 20 26 11 14 1005.4 1006.7 0.0
25/02:30am 2.0 -3.4 -1.6 77 1.4 W 17 30 9 16 1005.6 1006.9 0.0
25/02:00am 1.5 -2.7 -0.9 84 0.9 WNW 11 17 6 9 1005.8 1007.2 0.0
25/01:30am 1.5 -1.9 -0.7 85 0.8 N 7 17 4 9 1005.9 1007.3 0.0
25/01:00am 2.0 -2.5 -0.2 85 0.9 N 13 20 7 11 1005.9 1007.3 0.0
25/12:30am 3.1 -1.4 -0.2 79 1.3 N 13 22 7 12 1005.8 1007.2 0.0
25/12:00am 3.4 -1.1 -0.6 75 1.6 NW 13 20 7 11 1006.5 1007.8 0.0
 
Date/Time
EST
Temp
°C
App
Temp
°C
Dew
Point
°C
Rel
Hum
%
Delta-T
°C
Wind Press
QNH
hPa
Press
MSL
hPa
Rain since
9am
mm
Dir  Spd
km/h
Gust
km/h
Spd
kts
Gust
kts
24/11:30pm 3.2 -2.1 -0.8 75 1.6 NNW 17 24 9 13 1006.4 1007.7 0.0
24/11:00pm 2.4 -2.6 -0.9 79 1.3 W 15 22 8 12 1006.5 1007.8 0.0
24/10:30pm 2.1 -3.6 -0.6 82 1.0 W 19 24 10 13 1006.6 1008.0 0.0
24/10:00pm -0.2 -3.6 -0.8 96 0.2 NW 7 13 4 7 1007.2 1008.6 0.0
24/09:30pm 0.2 -3.5 -0.2 97 0.2 N 9 15 5 8 1007.6 1009.0 0.0
24/09:00pm 0.5 -4.7 0.4 99 0.0 NE 17 22 9 12 1007.7 1009.1 0.0
24/08:30pm 1.4 -3.1 -0.1 90 0.6 N 13 20 7 11 1007.8 1009.2 0.0
24/08:07pm 1.8 -1.4 -0.8 83 1.0 NNE 6 15 3 8 1008.1 1009.5 0.0
24/08:00pm 1.5 -1.8 -1.6 80 1.2 ENE 6 15 3 8 1008.1 1009.5 0.0
24/07:49pm 1.5 -2.8 -1.7 79 1.2 ENE 11 17 6 9 1007.9 1009.3 0.0
24/07:30pm 1.6 -3.8 -1.6 79 1.2 NE 17 20 9 11 1007.9 1009.3 0.0
24/07:00pm 1.2 -4.7 -2.4 77 1.4 NE 19 22 10 12 1007.5 1008.8 0.0
24/06:30pm 2.2 -2.2 -2.5 71 1.7 N 11 20 6 11 1008.0 1009.4 0.0
24/06:00pm 2.9 -2.6 -2.4 68 2.0 NNW 17 30 9 16 1008.0 1009.4 0.0
24/05:30pm 3.0 -1.4 -2.5 67 2.0 NNW 11 17 6 9 1008.0 1009.4 0.0
24/05:00pm 3.2 -0.9 -3.4 62 2.4 NNW 9 13 5 7 1007.9 1009.3 0.0
24/04:30pm 4.0 -1.3 -3.5 58 2.7 WNW 15 22 8 12 1008.0 1009.4 0.0
24/04:00pm 4.6 -0.7 -3.6 55 3.0 WNW 15 22 8 12 1008.1 1009.5 0.0
24/03:30pm 4.5 -0.8 -3.7 55 3.0 WNW 15 20 8 11 1008.1 1009.5 0.0
24/03:00pm 4.4 -1.0 -4.1 54 3.1 NW 15 22 8 12 1008.6 1010.0 0.0
24/02:30pm 4.3 -0.7 -4.2 54 3.1 W 13 20 7 11 1008.7 1010.1 0.0
24/02:00pm 4.0 -2.3 -4.2 55 3.0 WNW 20 30 11 16 1009.3 1010.8 0.0
24/01:30pm 3.9 -3.6 -4.3 55 2.9 WNW 26 35 14 19 1010.0 1011.4 0.0
24/01:00pm 3.9 -2.5 -4.5 54 3.0 WNW 20 30 11 16 1010.1 1011.5 0.0
24/12:30pm 4.1 -2.5 -3.6 57 2.8 WNW 22 37 12 20 1010.4 1011.9 0.0
24/12:00pm 4.8 -2.7 -4.2 52 3.3 NW 26 41 14 22 1010.6 1012.1 0.0
24/11:30am 4.7 -1.6 -3.6 55 3.1 WNW 20 32 11 17 1011.2 1012.7 0.0
24/11:00am 5.0 -1.6 -3.3 55 3.1 NW 22 33 12 18 1011.5 1013.0 0.0
24/10:30am 4.5 -1.6 -3.7 55 3.0 NW 19 28 10 15 1011.5 1013.0 0.0
24/10:00am 3.9 -2.8 -3.8 57 2.8 NW 22 32 12 17 1011.8 1013.3 0.0
24/09:30am 3.3 -3.4 -4.6 56 2.8 NW 22 32 12 17 1011.8 1013.3 0.0
24/09:00am 2.9 -2.0 -3.6 62 2.3 NNE 13 20 7 11 1012.0 1013.4 0.0
24/08:30am 0.5 -4.4 -3.4 75 1.4 ENE 13 15 7 8 1011.6 1013.1 0.0
24/08:00am -2.1 -6.0 -4.6 83 0.7 NE 7 11 4 6 1011.2 1012.7 0.0
24/07:30am -3.9 -7.4 -6.0 85 0.5 NNE 4 9 2 5 1011.2 1012.7 0.0
24/07:00am -4.7 -9.2 -7.3 82 0.6 NNE 9 9 5 5 1010.9 1012.3 0.0
24/06:30am -3.5 -7.5 -5.5 86 0.5 ENE 7 13 4 7 1010.6 1012.1 0.0
24/06:00am -4.2 -8.1 -6.2 86 0.5 NNE 6 9 3 5 1010.4 1011.9 0.0
24/05:30am -3.6 -7.5 -6.1 83 0.6 NE 6 9 3 5 1010.3 1011.8 0.0
24/05:00am -3.0 -6.8 -5.6 82 0.7 NNE 6 9 3 5 1010.3 1011.8 0.0
24/04:30am -1.2 -5.1 -4.9 76 1.2 WNW 7 13 4 7 1010.2 1011.6 0.0
24/04:00am -3.0 -6.9 -6.1 79 0.9 NNE 6 11 3 6 1010.3 1011.8 0.0
24/03:30am -0.7 -6.5 -4.7 74 1.3 W 17 20 9 11 1010.0 1011.4 0.0
24/03:00am 0.2 -5.6 -4.4 71 1.6 W 17 24 9 13 1009.9 1011.3 0.0
24/02:30am -1.3 -6.4 -4.8 77 1.1 W 13 15 7 8 1010.0 1011.4 0.0
24/02:00am -1.0 -5.7 -4.9 75 1.3 W 11 11 6 6 1010.1 1011.5 0.0
24/01:30am 0.1 -4.9 -4.3 72 1.5 WSW 13 17 7 9 1010.1 1011.5 0.0
24/01:00am 0.1 -3.8 -4.9 69 1.7 W 7 13 4 7 1009.9 1011.3 0.0
24/12:30am 0.7 -5.1 -4.3 69 1.8 W 17 20 9 11 1009.9 1011.3 0.0
24/12:00am 0.5 -4.9 -4.5 69 1.8 WSW 15 20 8 11 1010.0 1011.4 0.0
 
Date/Time
EST
Temp
°C
App
Temp
°C
Dew
Point
°C
Rel
Hum
%
Delta-T
°C
Wind Press
QNH
hPa
Press
MSL
hPa
Rain since
9am
mm
Dir  Spd
km/h
Gust
km/h
Spd
kts
Gust
kts
23/11:30pm 1.1 -5.6 -4.5 66 2.0 WSW 22 28 12 15 1010.1 1011.5 0.0
23/11:00pm 1.5 -4.8 -4.3 65 2.1 WSW 20 32 11 17 1009.5 1011.0 0.0
23/10:30pm 0.7 -5.4 -4.3 69 1.8 WSW 19 20 10 11 1009.3 1010.8 0.0
23/10:00pm 1.1 -3.5 -4.5 66 2.0 SW 11 15 6 8 1009.3 1010.8 0.0
23/09:30pm 0.8 -3.9 -4.6 67 1.9 SSW 11 13 6 7 1009.0 1010.4 0.0
23/09:00pm 1.1 -4.3 -4.9 64 2.1 WSW 15 19 8 10 1008.9 1010.3 0.0
23/08:30pm 1.7 -3.8 -5.2 60 2.5 WNW 15 20 8 11 1008.3 1009.7 0.0
23/08:00pm 1.0 -3.3 -5.0 64 2.1 S 9 13 5 7 1008.1 1009.5 0.0
23/07:30pm 1.3 -3.4 -5.0 63 2.2 NW 11 17 6 9 1007.8 1009.2 0.0
23/07:00pm 0.8 -3.9 -4.6 67 1.9 N 11 17 6 9 1007.5 1008.8 0.0
23/06:30pm 1.4 -2.4 -5.1 62 2.3 NNW 6 9 3 5 1006.8 1008.2 0.0
23/06:00pm 2.0 -3.1 -4.9 60 2.5 WNW 13 19 7 10 1006.3 1007.6 0.0
23/05:30pm 2.0 -3.5 -5.2 59 2.6 W 15 22 8 12 1005.7 1007.1 0.0
23/05:00pm 2.8 -2.7 -5.3 55 3.0 W 15 22 8 12 1005.3 1006.6 0.0
23/04:30pm 4.5 -0.8 -4.0 54 3.1 W 15 22 8 12 1004.6 1005.9 0.0
23/04:00pm 5.0 -3.2 -4.3 51 3.4 WSW 30 41 16 22 1004.2 1005.5 0.0
23/03:30pm 5.2 -2.5 -3.1 55 3.1 WNW 28 37 15 20 1003.5 1004.8 0.0
23/03:00pm 5.8 -2.7 -3.0 53 3.4 W 32 43 17 23 1003.1 1004.4 0.0
23/02:42pm 6.1 -2.1 -3.8 49 3.7 W 30 50 16 27 1002.8 1004.0 0.0
23/02:30pm 6.5 -2.2 -3.2 50 3.7 W 33 48 18 26 1002.4 1003.7 0.0
23/02:10pm 6.6 -3.3 -3.9 47 3.9 W 39 57 21 31 1001.9 1003.1 0.0
23/02:00pm 6.7 -3.5 -3.0 50 3.7 W 41 57 22 31 1001.4 1002.7 0.0
23/01:30pm 7.1 -1.6 -0.8 57 3.2 W 35 69 19 37 1001.3 1002.6 0.0
23/01:00pm 7.2 -1.8 -2.8 49 3.9 W 35 61 19 33 1000.8 1002.0 0.0
23/12:59pm 7.5 -1.4 -2.0 51 3.8 W 35 61 19 33 1000.8 1002.0 0.0
23/12:30pm 7.2 -2.8 -1.5 54 3.5 WNW 41 54 22 29 1000.6 1001.8 0.0
23/12:00pm 7.9 -0.9 -1.1 53 3.7 W 35 44 19 24 1000.1 1001.3 0.0
23/11:30am 7.1 -2.2 -1.8 53 3.5 W 37 54 20 29 1000.1 1001.3 0.0
23/11:27am 7.1 -1.8 -1.8 53 3.5 W 35 54 19 29 1000.0 1001.2 0.0
23/11:00am 7.5 -1.0 -1.7 52 3.7 W 33 44 18 24 999.8 1001.0 0.0
23/10:30am 7.6 0.2 -0.8 55 3.4 W 28 39 15 21 999.3 1000.4 0.0
23/10:00am 6.8 -0.6 -0.4 60 3.0 WNW 28 39 15 21 999.0 1000.2 0.0
23/09:30am 6.0 -2.4 -1.2 60 2.9 W 33 48 18 26 998.8 1000.0 0.0
23/09:00am 5.2 -3.1 -0.2 68 2.2 WNW 33 43 18 23 998.8 1000.0 10.4
23/08:35am 4.9 -3.2 -0.3 69 2.1 WNW 32 50 17 27 998.4 999.6 10.4
23/08:30am 4.8 -3.5 -0.6 68 2.2 WNW 33 46 18 25 998.3 999.4 10.4
23/08:00am 3.9 -4.3 -0.7 72 1.8 WNW 32 46 17 25 997.7 998.9 10.4
23/07:30am 3.7 -5.5 -1.3 70 1.9 W 37 63 20 34 997.3 998.4 10.4
23/07:04am 3.4 -5.8 -1.2 72 1.8 WNW 37 56 20 30 996.4 997.5 10.4
23/07:00am 3.3 -5.5 -1.3 72 1.8 W 35 50 19 27 996.3 997.4 10.4
23/06:30am 3.2 -5.3 -1.5 71 1.8 W 33 54 18 29 996.4 997.5 10.2
23/06:09am 3.0 -5.3 -0.6 77 1.4 W 33 52 18 28 996.0 997.1 10.2
23/06:00am 3.2 -6.3 -0.8 75 1.6 W 39 54 21 29 995.7 996.9 10.2
23/05:47am 2.8 -5.0 -0.5 79 1.3 W 30 52 16 28 995.5 996.6 10.2
23/05:38am 2.7 -5.3 0.1 83 1.0 W 32 44 17 24 995.4 996.5 10.2
23/05:30am 2.3 -5.8 0.7 89 0.6 WNW 33 50 18 27 995.3 996.4 10.2
23/05:29am 2.3 -5.8 0.7 89 0.6 WNW 33 50 18 27 995.2 996.3 10.2
23/05:17am 1.9 -5.3 0.9 93 0.4 WNW 28 48 15 26 995.2 996.3 10.2
23/05:08am 2.3 -5.3 0.7 89 0.6 W 30 43 16 23 995.1 996.2 9.4
23/05:07am 2.5 -5.0 1.0 90 0.6 W 30 43 16 23 995.2 996.3 9.4
23/05:05am 2.8 -5.3 1.3 90 0.6 W 33 44 18 24 995.1 996.2 9.2
23/05:00am 3.0 -6.6 1.4 89 0.7 W 41 54 22 29 995.0 996.1 8.8
23/04:55am 3.1 -6.9 1.3 88 0.7 W 43 67 23 36 994.8 995.9 8.8
23/04:50am 3.2 -4.9 0.9 85 0.9 W 33 67 18 36 994.9 996.0 8.6
23/04:30am 3.5 -4.7 0.4 80 1.2 WNW 33 59 18 32 994.3 995.4 8.2
23/04:25am 3.7 -3.6 0.2 78 1.4 WNW 28 50 15 27 994.3 995.4 8.2
23/04:21am 3.6 -3.6 0.5 80 1.3 WNW 28 43 15 23 994.1 995.2 8.2
23/04:00am 3.5 -8.2 1.2 85 1.0 W 52 76 28 41 994.4 995.5 8.2
23/03:53am 4.2 -6.4 0.9 79 1.4 W 46 76 25 41 994.2 995.3 7.8
23/03:30am 5.5 -3.5 0.3 69 2.1 WNW 37 61 20 33 993.7 994.7 7.8
23/03:00am 5.7 -1.8 0.9 71 2.0 WNW 30 48 16 26 993.8 994.9 7.8
23/02:36am 6.0 -1.4 1.7 74 1.8 WNW 30 56 16 30 993.9 995.0 7.8
23/02:30am 5.9 0.5 2.2 77 1.6 WNW 20 50 11 27 993.9 995.0 7.8
23/02:00am 5.9 -0.7 2.2 77 1.6 WNW 26 39 14 21 994.7 995.7 7.6

Other Formats:

Comma delimited format used in spreadsheet applications
http://www.bom.gov.au/fwo/IDN60801/IDN60801.94921.axf

JavaScript Object Notation format (JSON) in row-major order
http://www.bom.gov.au/fwo/IDN60801/IDN60801.94921.json